sensor_id;sensor_type;location;lat;lon;timestamp;pressure;altitude;pressure_sealevel;temperature;humidity
17615;BME280;8926;49.720;6.576;2023-02-04T00:01:19;101240.44;;;9.53;90.10
17615;BME280;8926;49.720;6.576;2023-02-04T00:03:44;101231.78;;;9.53;89.91
17615;BME280;8926;49.720;6.576;2023-02-04T00:06:10;101242.25;;;9.51;90.11
17615;BME280;8926;49.720;6.576;2023-02-04T00:08:35;101233.56;;;9.51;90.08
17615;BME280;8926;49.720;6.576;2023-02-04T00:11:02;101235.31;;;9.50;90.51
17615;BME280;8926;49.720;6.576;2023-02-04T00:13:27;101226.59;;;9.51;90.55
17615;BME280;8926;49.720;6.576;2023-02-04T00:15:52;101224.88;;;9.50;90.26
17615;BME280;8926;49.720;6.576;2023-02-04T00:18:17;101229.28;;;9.48;90.92
17615;BME280;8926;49.720;6.576;2023-02-04T00:20:43;101230.19;;;9.47;90.75
17615;BME280;8926;49.720;6.576;2023-02-04T00:23:08;101233.59;;;9.49;91.05
17615;BME280;8926;49.720;6.576;2023-02-04T00:25:33;101237.97;;;9.49;90.68
17615;BME280;8926;49.720;6.576;2023-02-04T00:27:58;101233.69;;;9.46;91.03
17615;BME280;8926;49.720;6.576;2023-02-04T00:30:24;101238.91;;;9.46;90.85
17615;BME280;8926;49.720;6.576;2023-02-04T00:32:49;101231.91;;;9.48;90.88
17615;BME280;8926;49.720;6.576;2023-02-04T00:35:19;101231.03;;;9.48;91.16
17615;BME280;8926;49.720;6.576;2023-02-04T00:37:44;101224.88;;;9.50;90.83
17615;BME280;8926;49.720;6.576;2023-02-04T00:40:10;101219.75;;;9.47;91.01
17615;BME280;8926;49.720;6.576;2023-02-04T00:42:35;101218.91;;;9.47;91.59
17615;BME280;8926;49.720;6.576;2023-02-04T00:45:01;101218.03;;;9.46;90.99
17615;BME280;8926;49.720;6.576;2023-02-04T00:47:26;101217.19;;;9.46;91.63
17615;BME280;8926;49.720;6.576;2023-02-04T00:49:51;101216.41;;;9.42;91.40
17615;BME280;8926;49.720;6.576;2023-02-04T00:52:16;101211.19;;;9.42;91.75
17615;BME280;8926;49.720;6.576;2023-02-04T00:54:42;101208.63;;;9.41;91.58
17615;BME280;8926;49.720;6.576;2023-02-04T00:57:07;101204.25;;;9.41;91.51
17615;BME280;8926;49.720;6.576;2023-02-04T00:59:32;101206.03;;;9.41;91.50
17615;BME280;8926;49.720;6.576;2023-02-04T01:01:58;101200.88;;;9.38;91.43
17615;BME280;8926;49.720;6.576;2023-02-04T01:04:24;101204.38;;;9.37;91.32
17615;BME280;8926;49.720;6.576;2023-02-04T01:06:50;101209.56;;;9.38;91.80
17615;BME280;8926;49.720;6.576;2023-02-04T01:09:15;101217.50;;;9.35;91.62
17615;BME280;8926;49.720;6.576;2023-02-04T01:11:41;101222.81;;;9.32;91.90
17615;BME280;8926;49.720;6.576;2023-02-04T01:14:06;101228.84;;;9.34;92.11
17615;BME280;8926;49.720;6.576;2023-02-04T01:16:32;101218.47;;;9.31;92.25
17615;BME280;8926;49.720;6.576;2023-02-04T01:18:57;101226.22;;;9.34;92.30
17615;BME280;8926;49.720;6.576;2023-02-04T01:21:23;101232.22;;;9.36;92.86
17615;BME280;8926;49.720;6.576;2023-02-04T01:23:48;101230.53;;;9.35;92.59
17615;BME280;8926;49.720;6.576;2023-02-04T01:26:15;101231.44;;;9.34;92.86
17615;BME280;8926;49.720;6.576;2023-02-04T01:28:40;101222.75;;;9.34;92.61
17615;BME280;8926;49.720;6.576;2023-02-04T01:31:05;101223.63;;;9.34;92.12
17615;BME280;8926;49.720;6.576;2023-02-04T01:33:31;101228.03;;;9.32;92.56
17615;BME280;8926;49.720;6.576;2023-02-04T01:35:56;101234.06;;;9.34;92.50
17615;BME280;8926;49.720;6.576;2023-02-04T01:38:22;101242.78;;;9.33;92.93
17615;BME280;8926;49.720;6.576;2023-02-04T01:40:47;101240.06;;;9.36;92.62
17615;BME280;8926;49.720;6.576;2023-02-04T01:43:12;101246.19;;;9.35;92.99
17615;BME280;8926;49.720;6.576;2023-02-04T01:45:38;101242.78;;;9.33;92.76
17615;BME280;8926;49.720;6.576;2023-02-04T01:48:04;101248.88;;;9.32;92.50
17615;BME280;8926;49.720;6.576;2023-02-04T01:50:30;101256.63;;;9.35;92.99
17615;BME280;8926;49.720;6.576;2023-02-04T01:52:56;101255.81;;;9.33;92.96
17615;BME280;8926;49.720;6.576;2023-02-04T01:55:26;101255.00;;;9.31;92.67
17615;BME280;8926;49.720;6.576;2023-02-04T01:57:52;101251.50;;;9.32;92.47
17615;BME280;8926;49.720;6.576;2023-02-04T02:00:29;101255.78;;;9.35;92.73
17615;BME280;8926;49.720;6.576;2023-02-04T02:02:55;101249.59;;;9.37;93.14
17615;BME280;8926;49.720;6.576;2023-02-04T02:05:50;101246.00;;;9.41;92.51
17615;BME280;8926;49.720;6.576;2023-02-04T02:08:17;101249.34;;;9.46;92.19
17615;BME280;8926;49.720;6.576;2023-02-04T02:10:44;101252.84;;;9.45;92.71
17615;BME280;8926;49.720;6.576;2023-02-04T02:13:12;101250.16;;;9.48;92.17
17615;BME280;8926;49.720;6.576;2023-02-04T02:15:39;101253.63;;;9.49;92.44
17615;BME280;8926;49.720;6.576;2023-02-04T02:18:04;101252.69;;;9.51;92.73
17615;BME280;8926;49.720;6.576;2023-02-04T02:20:30;101252.59;;;9.55;92.17
17615;BME280;8926;49.720;6.576;2023-02-04T02:25:27;101252.59;;;9.55;91.81
17615;BME280;8926;49.720;6.576;2023-02-04T02:27:53;101251.75;;;9.54;91.76
17615;BME280;8926;49.720;6.576;2023-02-04T02:30:18;101247.38;;;9.55;91.75
17615;BME280;8926;49.720;6.576;2023-02-04T02:32:45;101250.88;;;9.53;92.10
17615;BME280;8926;49.720;6.576;2023-02-04T02:35:11;101256.03;;;9.57;91.56
17615;BME280;8926;49.720;6.576;2023-02-04T02:37:37;101257.78;;;9.56;92.20
17615;BME280;8926;49.720;6.576;2023-02-04T02:40:03;101256.03;;;9.57;92.29
17615;BME280;8926;49.720;6.576;2023-02-04T02:42:29;101262.06;;;9.59;92.07
17615;BME280;8926;49.720;6.576;2023-02-04T02:44:55;101259.31;;;9.62;92.01
17615;BME280;8926;49.720;6.576;2023-02-04T02:47:21;101257.53;;;9.64;91.71
17615;BME280;8926;49.720;6.576;2023-02-04T02:49:48;101257.53;;;9.64;91.65
17615;BME280;8926;49.720;6.576;2023-02-04T02:52:14;101262.75;;;9.64;91.57
17615;BME280;8926;49.720;6.576;2023-02-04T02:54:40;101261.91;;;9.63;91.51
17615;BME280;8926;49.720;6.576;2023-02-04T02:57:14;101269.69;;;9.65;91.58
17615;BME280;8926;49.720;6.576;2023-02-04T02:59:40;101275.91;;;9.61;91.60
17615;BME280;8926;49.720;6.576;2023-02-04T03:02:07;101273.63;;;9.48;91.42
17615;BME280;8926;49.720;6.576;2023-02-04T03:04:37;101282.44;;;9.44;91.16
17615;BME280;8926;49.720;6.576;2023-02-04T03:07:04;101278.28;;;9.37;91.12
17615;BME280;8926;49.720;6.576;2023-02-04T03:09:30;101284.50;;;9.33;91.75
17615;BME280;8926;49.720;6.576;2023-02-04T03:11:57;101285.50;;;9.28;92.32
17615;BME280;8926;49.720;6.576;2023-02-04T03:14:22;101298.59;;;9.26;91.85
17615;BME280;8926;49.720;6.576;2023-02-04T03:16:50;101291.66;;;9.25;92.43
17615;BME280;8926;49.720;6.576;2023-02-04T03:19:16;101300.31;;;9.27;92.52
17615;BME280;8926;49.720;6.576;2023-02-04T03:21:41;101322.03;;;9.28;92.77
17615;BME280;8926;49.720;6.576;2023-02-04T03:24:07;101314.22;;;9.26;92.51
17615;BME280;8926;49.720;6.576;2023-02-04T03:26:32;101313.53;;;9.19;92.92
17615;BME280;8926;49.720;6.576;2023-02-04T03:28:58;101320.50;;;9.19;93.41
17615;BME280;8926;49.720;6.576;2023-02-04T03:31:23;101317.88;;;9.19;93.45
17615;BME280;8926;49.720;6.576;2023-02-04T03:33:49;101317.00;;;9.20;93.25
17615;BME280;8926;49.720;6.576;2023-02-04T03:36:14;101321.31;;;9.21;93.40
17615;BME280;8926;49.720;6.576;2023-02-04T03:38:39;101324.75;;;9.23;93.70
17615;BME280;8926;49.720;6.576;2023-02-04T03:41:05;101328.16;;;9.25;93.56
17615;BME280;8926;49.720;6.576;2023-02-04T03:43:30;101340.31;;;9.26;92.94
17615;BME280;8926;49.720;6.576;2023-02-04T03:45:55;101335.09;;;9.26;92.70
17615;BME280;8926;49.720;6.576;2023-02-04T03:48:21;101340.38;;;9.23;92.83
17615;BME280;8926;49.720;6.576;2023-02-04T03:50:46;101341.31;;;9.21;92.57
17615;BME280;8926;49.720;6.576;2023-02-04T03:53:11;101343.97;;;9.19;92.15
17615;BME280;8926;49.720;6.576;2023-02-04T03:55:37;101339.72;;;9.15;91.80
17615;BME280;8926;49.720;6.576;2023-02-04T03:58:03;101341.44;;;9.16;92.36
17615;BME280;8926;49.720;6.576;2023-02-04T04:00:28;101344.03;;;9.16;91.79
17615;BME280;8926;49.720;6.576;2023-02-04T04:02:54;101338.88;;;9.13;91.70
17615;BME280;8926;49.720;6.576;2023-02-04T04:05:20;101354.53;;;9.13;92.24
17615;BME280;8926;49.720;6.576;2023-02-04T04:07:45;101343.28;;;9.11;91.26
17615;BME280;8926;49.720;6.576;2023-02-04T04:10:10;101359.81;;;9.10;91.28
17615;BME280;8926;49.720;6.576;2023-02-04T04:12:36;101358.22;;;9.06;91.04
17615;BME280;8926;49.720;6.576;2023-02-04T04:15:01;101359.09;;;9.05;91.36
17615;BME280;8926;49.720;6.576;2023-02-04T04:17:27;101363.44;;;9.06;91.40
17615;BME280;8926;49.720;6.576;2023-02-04T04:19:52;101367.81;;;9.04;91.36
17615;BME280;8926;49.720;6.576;2023-02-04T04:22:17;101366.03;;;9.06;91.13
17615;BME280;8926;49.720;6.576;2023-02-04T04:24:43;101363.44;;;9.06;90.91
17615;BME280;8926;49.720;6.576;2023-02-04T04:27:08;101361.72;;;9.05;91.16
17615;BME280;8926;49.720;6.576;2023-02-04T04:29:33;101370.34;;;9.07;90.70
17615;BME280;8926;49.720;6.576;2023-02-04T04:31:59;101366.03;;;9.06;90.86
17615;BME280;8926;49.720;6.576;2023-02-04T04:34:24;101379.13;;;9.03;90.75
17615;BME280;8926;49.720;6.576;2023-02-04T04:36:49;101381.78;;;9.01;91.00
17615;BME280;8926;49.720;6.576;2023-02-04T04:39:14;101380.91;;;9.01;90.92
17615;BME280;8926;49.720;6.576;2023-02-04T04:41:40;101391.41;;;8.98;90.60
17615;BME280;8926;49.720;6.576;2023-02-04T04:44:05;101399.28;;;8.96;91.22
17615;BME280;8926;49.720;6.576;2023-02-04T04:46:30;101388.00;;;8.96;90.50
17615;BME280;8926;49.720;6.576;2023-02-04T04:48:56;101397.69;;;8.89;89.89
17615;BME280;8926;49.720;6.576;2023-02-04T04:51:21;101395.25;;;8.83;90.20
17615;BME280;8926;49.720;6.576;2023-02-04T04:53:47;101403.25;;;8.75;90.02
17615;BME280;8926;49.720;6.576;2023-02-04T04:56:12;101404.25;;;8.68;90.13
17615;BME280;8926;49.720;6.576;2023-02-04T04:58:37;101411.19;;;8.69;90.12
17615;BME280;8926;49.720;6.576;2023-02-04T05:01:02;101407.81;;;8.64;89.85
17615;BME280;8926;49.720;6.576;2023-02-04T05:03:28;101407.06;;;8.59;89.98
17615;BME280;8926;49.720;6.576;2023-02-04T05:05:53;101404.53;;;8.56;90.15
17615;BME280;8926;49.720;6.576;2023-02-04T05:08:18;101406.50;;;8.45;90.68
17615;BME280;8926;49.720;6.576;2023-02-04T05:10:45;101401.47;;;8.37;90.37
17615;BME280;8926;49.720;6.576;2023-02-04T05:13:10;101404.91;;;8.38;90.88
17615;BME280;8926;49.720;6.576;2023-02-04T05:15:36;101412.97;;;8.26;90.40
17615;BME280;8926;49.720;6.576;2023-02-04T05:18:01;101412.09;;;8.25;91.05
17615;BME280;8926;49.720;6.576;2023-02-04T05:20:27;101409.56;;;8.22;91.37
17615;BME280;8926;49.720;6.576;2023-02-04T05:22:52;101413.91;;;8.22;91.25
17615;BME280;8926;49.720;6.576;2023-02-04T05:25:20;101410.47;;;8.20;91.14
17615;BME280;8926;49.720;6.576;2023-02-04T05:27:45;101411.34;;;8.20;91.66
17615;BME280;8926;49.720;6.576;2023-02-04T05:30:12;101413.97;;;8.18;90.98
17615;BME280;8926;49.720;6.576;2023-02-04T05:32:38;101411.34;;;8.20;91.31
17615;BME280;8926;49.720;6.576;2023-02-04T05:35:03;101412.25;;;8.17;91.13
17615;BME280;8926;49.720;6.576;2023-02-04T05:37:29;101419.19;;;8.18;91.30
17615;BME280;8926;49.720;6.576;2023-02-04T05:39:54;101413.91;;;8.22;91.28
17615;BME280;8926;49.720;6.576;2023-02-04T05:42:20;101412.13;;;8.24;91.37
17615;BME280;8926;49.720;6.576;2023-02-04T05:44:45;101420.88;;;8.20;91.55
17615;BME280;8926;49.720;6.576;2023-02-04T05:47:10;101435.59;;;8.22;91.69
17615;BME280;8926;49.720;6.576;2023-02-04T05:49:35;101431.25;;;8.23;91.51
17615;BME280;8926;49.720;6.576;2023-02-04T05:52:01;101443.44;;;8.21;91.24
17615;BME280;8926;49.720;6.576;2023-02-04T05:54:26;101441.66;;;8.23;91.22
17615;BME280;8926;49.720;6.576;2023-02-04T05:56:51;101441.72;;;8.20;90.95
17615;BME280;8926;49.720;6.576;2023-02-04T05:59:17;101448.63;;;8.21;90.84
17615;BME280;8926;49.720;6.576;2023-02-04T06:01:42;101447.75;;;8.22;90.92
17615;BME280;8926;49.720;6.576;2023-02-04T06:04:08;101453.00;;;8.20;91.29
17615;BME280;8926;49.720;6.576;2023-02-04T06:06:33;101451.31;;;8.17;91.30
17615;BME280;8926;49.720;6.576;2023-02-04T06:08:59;101450.41;;;8.18;91.19
17615;BME280;8926;49.720;6.576;2023-02-04T06:11:25;101448.69;;;8.17;91.33
17615;BME280;8926;49.720;6.576;2023-02-04T06:13:50;101452.19;;;8.16;91.17
17615;BME280;8926;49.720;6.576;2023-02-04T06:16:16;101446.13;;;8.16;90.78
17615;BME280;8926;49.720;6.576;2023-02-04T06:18:41;101448.75;;;8.14;90.83
17615;BME280;8926;49.720;6.576;2023-02-04T06:21:06;101446.19;;;8.13;91.37
17615;BME280;8926;49.720;6.576;2023-02-04T06:23:32;101451.47;;;8.08;91.11
17615;BME280;8926;49.720;6.576;2023-02-04T06:26:01;101454.16;;;8.05;90.75
17615;BME280;8926;49.720;6.576;2023-02-04T06:28:27;101450.78;;;8.00;91.20
17615;BME280;8926;49.720;6.576;2023-02-04T06:30:52;101462.13;;;7.96;91.16
17615;BME280;8926;49.720;6.576;2023-02-04T06:33:17;101463.13;;;7.89;90.57
17615;BME280;8926;49.720;6.576;2023-02-04T06:35:43;101465.84;;;7.81;90.60
17615;BME280;8926;49.720;6.576;2023-02-04T06:38:08;101478.97;;;7.77;90.79
17615;BME280;8926;49.720;6.576;2023-02-04T06:40:33;101479.06;;;7.71;90.82
17615;BME280;8926;49.720;6.576;2023-02-04T06:42:59;101479.97;;;7.68;90.81
17615;BME280;8926;49.720;6.576;2023-02-04T06:45:24;101479.09;;;7.68;90.98
17615;BME280;8926;49.720;6.576;2023-02-04T06:47:49;101478.25;;;7.67;91.33
17615;BME280;8926;49.720;6.576;2023-02-04T06:50:15;101478.28;;;7.66;90.96
17615;BME280;8926;49.720;6.576;2023-02-04T06:52:45;101476.59;;;7.62;90.42
17615;BME280;8926;49.720;6.576;2023-02-04T06:55:12;101480.97;;;7.60;90.00
17615;BME280;8926;49.720;6.576;2023-02-04T06:57:37;101481.06;;;7.54;89.38
17615;BME280;8926;49.720;6.576;2023-02-04T07:00:04;101503.75;;;7.45;89.06
17615;BME280;8926;49.720;6.576;2023-02-04T07:02:29;101499.44;;;7.43;89.26
17615;BME280;8926;49.720;6.576;2023-02-04T07:04:55;101497.75;;;7.42;88.88
17615;BME280;8926;49.720;6.576;2023-02-04T07:07:20;101510.72;;;7.43;89.37
17615;BME280;8926;49.720;6.576;2023-02-04T07:09:45;101511.56;;;7.44;89.06
17615;BME280;8926;49.720;6.576;2023-02-04T07:12:11;101511.56;;;7.44;88.78
17615;BME280;8926;49.720;6.576;2023-02-04T07:14:36;101525.41;;;7.46;89.24
17615;BME280;8926;49.720;6.576;2023-02-04T07:17:01;101534.06;;;7.46;88.50
17615;BME280;8926;49.720;6.576;2023-02-04T07:19:27;101533.16;;;7.51;89.05
17615;BME280;8926;49.720;6.576;2023-02-04T07:21:52;101537.44;;;7.53;88.68
17615;BME280;8926;49.720;6.576;2023-02-04T07:24:21;101534.78;;;7.55;88.43
17615;BME280;8926;49.720;6.576;2023-02-04T07:26:46;101546.16;;;7.51;87.98
17615;BME280;8926;49.720;6.576;2023-02-04T07:29:11;101545.34;;;7.45;88.11
17615;BME280;8926;49.720;6.576;2023-02-04T07:31:37;101557.41;;;7.51;88.45
17615;BME280;8926;49.720;6.576;2023-02-04T07:34:02;101551.28;;;7.54;88.09
17615;BME280;8926;49.720;6.576;2023-02-04T07:36:27;101553.75;;;7.63;88.24
17615;BME280;8926;49.720;6.576;2023-02-04T07:38:53;101557.09;;;7.71;87.33
17615;BME280;8926;49.720;6.576;2023-02-04T07:41:18;101553.56;;;7.75;86.89
17615;BME280;8926;49.720;6.576;2023-02-04T07:43:45;101562.28;;;7.71;86.31
17615;BME280;8926;49.720;6.576;2023-02-04T07:46:10;101569.19;;;7.75;86.92
17615;BME280;8926;49.720;6.576;2023-02-04T07:48:35;101556.19;;;7.73;86.23
17615;BME280;8926;49.720;6.576;2023-02-04T07:51:01;101565.78;;;7.70;85.47
17615;BME280;8926;49.720;6.576;2023-02-04T07:53:26;101574.41;;;7.72;85.45
17615;BME280;8926;49.720;6.576;2023-02-04T07:55:51;101578.75;;;7.73;85.37
17615;BME280;8926;49.720;6.576;2023-02-04T07:58:17;101579.59;;;7.75;85.39
17615;BME280;8926;49.720;6.576;2023-02-04T08:00:42;101575.13;;;7.81;85.62
17615;BME280;8926;49.720;6.576;2023-02-04T08:03:07;101577.66;;;7.86;85.03
17615;BME280;8926;49.720;6.576;2023-02-04T08:05:32;101575.75;;;7.97;85.00
17615;BME280;8926;49.720;6.576;2023-02-04T08:07:58;101577.47;;;7.98;84.37
17615;BME280;8926;49.720;6.576;2023-02-04T08:10:23;101577.38;;;8.04;84.38
17615;BME280;8926;49.720;6.576;2023-02-04T08:12:48;101589.38;;;8.11;84.63
17615;BME280;8926;49.720;6.576;2023-02-04T08:15:13;101580.69;;;8.12;83.62
17615;BME280;8926;49.720;6.576;2023-02-04T08:17:39;101592.66;;;8.23;84.09
17615;BME280;8926;49.720;6.576;2023-02-04T08:20:04;101597.56;;;8.41;83.60
17615;BME280;8926;49.720;6.576;2023-02-04T08:22:30;101603.56;;;8.46;82.11
17615;BME280;8926;49.720;6.576;2023-02-04T08:24:55;101598.34;;;8.46;82.28
17615;BME280;8926;49.720;6.576;2023-02-04T08:27:20;101600.78;;;8.55;82.35
17615;BME280;8926;49.720;6.576;2023-02-04T08:29:46;101606.84;;;8.57;82.30
17615;BME280;8926;49.720;6.576;2023-02-04T08:32:11;101607.63;;;8.59;82.56
17615;BME280;8926;49.720;6.576;2023-02-04T08:34:38;101611.22;;;8.55;82.62
17615;BME280;8926;49.720;6.576;2023-02-04T08:37:03;101623.25;;;8.59;82.97
17615;BME280;8926;49.720;6.576;2023-02-04T08:39:29;101619.50;;;8.75;83.10
17615;BME280;8926;49.720;6.576;2023-02-04T08:41:54;101618.34;;;8.89;81.92
17615;BME280;8926;49.720;6.576;2023-02-04T08:44:19;101609.63;;;11.06;77.61
17615;BME280;8926;49.720;6.576;2023-02-04T08:46:45;101598.97;;;13.87;70.11
17615;BME280;8926;49.720;6.576;2023-02-04T08:49:10;101592.25;;;15.39;68.63
17615;BME280;8926;49.720;6.576;2023-02-04T08:51:35;101580.00;;;16.95;65.80
17615;BME280;8926;49.720;6.576;2023-02-04T08:54:00;101569.88;;;17.82;54.19
17615;BME280;8926;49.720;6.576;2023-02-04T08:56:26;101577.47;;;18.76;60.19
17615;BME280;8926;49.720;6.576;2023-02-04T08:58:51;101570.56;;;19.57;53.19
17615;BME280;8926;49.720;6.576;2023-02-04T09:01:19;101570.50;;;20.11;51.04
17615;BME280;8926;49.720;6.576;2023-02-04T09:03:45;101562.59;;;20.75;45.87
17615;BME280;8926;49.720;6.576;2023-02-04T09:06:10;101570.19;;;21.54;45.49
17615;BME280;8926;49.720;6.576;2023-02-04T09:08:35;101569.34;;;22.01;40.00
17615;BME280;8926;49.720;6.576;2023-02-04T09:11:01;101559.75;;;22.45;37.72
17615;BME280;8926;49.720;6.576;2023-02-04T09:13:27;101566.09;;;22.88;40.24
17615;BME280;8926;49.720;6.576;2023-02-04T09:15:52;101563.59;;;23.41;38.13
17615;BME280;8926;49.720;6.576;2023-02-04T09:18:18;101568.56;;;23.89;35.90
17615;BME280;8926;49.720;6.576;2023-02-04T09:20:46;101557.47;;;23.73;34.54
17615;BME280;8926;49.720;6.576;2023-02-04T09:23:12;101572.09;;;24.10;37.72
17615;BME280;8926;49.720;6.576;2023-02-04T09:25:38;101572.09;;;24.10;32.92
17615;BME280;8926;49.720;6.576;2023-02-04T09:28:04;101574.31;;;24.05;33.67
17615;BME280;8926;49.720;6.576;2023-02-04T09:30:29;101570.81;;;23.73;32.50
17615;BME280;8926;49.720;6.576;2023-02-04T09:32:55;101577.22;;;23.38;33.61
17615;BME280;8926;49.720;6.576;2023-02-04T09:35:20;101584.03;;;23.09;35.58
17615;BME280;8926;49.720;6.576;2023-02-04T09:37:46;101585.88;;;21.70;35.85
17615;BME280;8926;49.720;6.576;2023-02-04T09:40:15;101590.31;;;21.45;37.26
17615;BME280;8926;49.720;6.576;2023-02-04T09:42:43;101599.88;;;20.98;37.75
17615;BME280;8926;49.720;6.576;2023-02-04T09:45:23;101598.63;;;20.66;38.74
17615;BME280;8926;49.720;6.576;2023-02-04T09:47:50;101600.09;;;20.45;38.15
17615;BME280;8926;49.720;6.576;2023-02-04T09:50:22;101604.69;;;20.28;38.37
17615;BME280;8926;49.720;6.576;2023-02-04T09:52:54;101602.06;;;19.89;40.27
17615;BME280;8926;49.720;6.576;2023-02-04T09:55:27;101610.09;;;19.75;39.45
17615;BME280;8926;49.720;6.576;2023-02-04T09:57:54;101607.31;;;20.03;39.11
17615;BME280;8926;49.720;6.576;2023-02-04T10:00:23;101611.34;;;20.09;38.16
17615;BME280;8926;49.720;6.576;2023-02-04T10:02:48;101607.53;;;20.40;39.81
17615;BME280;8926;49.720;6.576;2023-02-04T10:05:16;101619.56;;;20.18;39.00
17615;BME280;8926;49.720;6.576;2023-02-04T10:07:43;101613.94;;;19.42;39.89
17615;BME280;8926;49.720;6.576;2023-02-04T10:10:15;101628.75;;;19.04;41.37
17615;BME280;8926;49.720;6.576;2023-02-04T10:12:41;101630.44;;;19.05;40.31
17615;BME280;8926;49.720;6.576;2023-02-04T10:15:11;101625.25;;;18.89;40.54
17615;BME280;8926;49.720;6.576;2023-02-04T10:17:37;101633.94;;;19.19;40.09
17615;BME280;8926;49.720;6.576;2023-02-04T10:20:03;101629.66;;;19.45;39.90
17615;BME280;8926;49.720;6.576;2023-02-04T10:22:28;101634.41;;;19.26;39.90
17615;BME280;8926;49.720;6.576;2023-02-04T10:24:54;101623.41;;;19.32;38.76
17615;BME280;8926;49.720;6.576;2023-02-04T10:27:19;101630.78;;;19.55;38.61
17615;BME280;8926;49.720;6.576;2023-02-04T10:29:58;101621.50;;;19.89;39.46
17615;BME280;8926;49.720;6.576;2023-02-04T10:32:32;101615.75;;;20.22;37.34
17615;BME280;8926;49.720;6.576;2023-02-04T10:35:00;101620.16;;;20.09;38.39
17615;BME280;8926;49.720;6.576;2023-02-04T10:37:26;101625.38;;;20.38;36.97
17615;BME280;8926;49.720;6.576;2023-02-04T10:39:51;101636.88;;;20.51;37.51
17615;BME280;8926;49.720;6.576;2023-02-04T10:42:27;101636.44;;;20.44;37.01
17615;BME280;8926;49.720;6.576;2023-02-04T10:44:53;101627.75;;;19.88;39.89
17615;BME280;8926;49.720;6.576;2023-02-04T10:47:21;101636.81;;;18.58;40.16
17615;BME280;8926;49.720;6.576;2023-02-04T10:52:35;101636.63;;;17.22;43.16
17615;BME280;8926;49.720;6.576;2023-02-04T10:55:03;101649.88;;;16.72;42.94
17615;BME280;8926;49.720;6.576;2023-02-04T10:57:30;101651.84;;;16.15;44.54
17615;BME280;8926;49.720;6.576;2023-02-04T11:00:00;101651.91;;;15.40;45.74
17615;BME280;8926;49.720;6.576;2023-02-04T11:02:30;101661.00;;;14.55;47.69
17615;BME280;8926;49.720;6.576;2023-02-04T11:04:56;101653.94;;;14.13;49.94
17615;BME280;8926;49.720;6.576;2023-02-04T11:07:22;101648.81;;;14.10;49.12
17615;BME280;8926;49.720;6.576;2023-02-04T11:09:48;101649.97;;;14.03;49.49
17615;BME280;8926;49.720;6.576;2023-02-04T11:12:35;101652.88;;;13.97;50.02
17615;BME280;8926;49.720;6.576;2023-02-04T11:15:01;101659.56;;;13.82;50.37
17615;BME280;8926;49.720;6.576;2023-02-04T11:17:31;101651.16;;;13.74;50.73
17615;BME280;8926;49.720;6.576;2023-02-04T11:19:57;101652.03;;;13.75;51.23
17615;BME280;8926;49.720;6.576;2023-02-04T11:22:45;101646.66;;;13.54;50.88
17615;BME280;8926;49.720;6.576;2023-02-04T11:25:34;101655.47;;;13.30;51.64
17615;BME280;8926;49.720;6.576;2023-02-04T11:28:12;101647.97;;;13.21;52.28
17615;BME280;8926;49.720;6.576;2023-02-04T11:30:38;101647.28;;;13.16;52.48
17615;BME280;8926;49.720;6.576;2023-02-04T11:33:05;101646.41;;;13.15;52.72
17615;BME280;8926;49.720;6.576;2023-02-04T11:35:31;101641.91;;;13.19;52.85
17615;BME280;8926;49.720;6.576;2023-02-04T11:37:57;101645.22;;;13.24;52.91
17615;BME280;8926;49.720;6.576;2023-02-04T11:40:29;101649.88;;;13.39;52.90
17615;BME280;8926;49.720;6.576;2023-02-04T11:42:57;101641.09;;;13.40;52.31
17615;BME280;8926;49.720;6.576;2023-02-04T11:45:26;101645.88;;;13.29;52.61
17615;BME280;8926;49.720;6.576;2023-02-04T11:47:55;101634.28;;;13.11;52.98
17615;BME280;8926;49.720;6.576;2023-02-04T11:50:30;101651.56;;;12.94;53.42
17615;BME280;8926;49.720;6.576;2023-02-04T11:52:57;101643.97;;;12.86;53.26
17615;BME280;8926;49.720;6.576;2023-02-04T11:55:23;101646.44;;;12.66;54.37
17615;BME280;8926;49.720;6.576;2023-02-04T11:57:53;101650.31;;;12.54;53.77
17615;BME280;8926;49.720;6.576;2023-02-04T12:00:22;101652.22;;;12.49;54.02
17615;BME280;8926;49.720;6.576;2023-02-04T12:05:45;101652.63;;;12.63;54.90
17615;BME280;8926;49.720;6.576;2023-02-04T12:08:24;101647.03;;;12.47;54.50
17615;BME280;8926;49.720;6.576;2023-02-04T12:11:02;101649.75;;;12.46;54.71
17615;BME280;8926;49.720;6.576;2023-02-04T12:13:29;101650.81;;;12.40;55.09
17615;BME280;8926;49.720;6.576;2023-02-04T12:15:58;101647.66;;;12.29;55.18
17615;BME280;8926;49.720;6.576;2023-02-04T12:18:24;101649.50;;;12.27;55.36
17615;BME280;8926;49.720;6.576;2023-02-04T12:20:52;101652.47;;;12.16;55.09
17615;BME280;8926;49.720;6.576;2023-02-04T12:23:17;101650.84;;;12.12;56.19
17615;BME280;8926;49.720;6.576;2023-02-04T12:25:43;101653.38;;;12.15;56.47
17615;BME280;8926;49.720;6.576;2023-02-04T12:28:08;101653.28;;;12.18;56.23
17615;BME280;8926;49.720;6.576;2023-02-04T12:30:33;101653.16;;;12.21;55.67
17615;BME280;8926;49.720;6.576;2023-02-04T12:33:00;101654.81;;;12.24;55.78
17615;BME280;8926;49.720;6.576;2023-02-04T12:35:25;101651.97;;;12.32;55.87
17615;BME280;8926;49.720;6.576;2023-02-04T12:37:50;101644.91;;;12.34;56.13
17615;BME280;8926;49.720;6.576;2023-02-04T12:40:18;101649.13;;;12.38;55.82
17615;BME280;8926;49.720;6.576;2023-02-04T12:42:43;101649.84;;;12.43;55.76
17615;BME280;8926;49.720;6.576;2023-02-04T12:45:10;101646.53;;;12.38;55.34
17615;BME280;8926;49.720;6.576;2023-02-04T12:47:35;101640.97;;;12.47;55.84
17615;BME280;8926;49.720;6.576;2023-02-04T12:50:01;101643.41;;;12.51;55.90
17615;BME280;8926;49.720;6.576;2023-02-04T12:52:26;101646.78;;;12.55;55.19
17615;BME280;8926;49.720;6.576;2023-02-04T12:54:51;101645.78;;;12.59;55.18
17615;BME280;8926;49.720;6.576;2023-02-04T12:57:18;101640.53;;;12.59;55.26
17615;BME280;8926;49.720;6.576;2023-02-04T12:59:45;101642.47;;;12.54;55.51
17615;BME280;8926;49.720;6.576;2023-02-04T13:02:11;101645.13;;;12.52;54.86
17615;BME280;8926;49.720;6.576;2023-02-04T13:04:36;101643.09;;;12.36;54.49
17615;BME280;8926;49.720;6.576;2023-02-04T13:07:02;101643.38;;;12.27;54.59
17615;BME280;8926;49.720;6.576;2023-02-04T13:09:27;101634.72;;;12.24;55.35
17615;BME280;8926;49.720;6.576;2023-02-04T13:11:52;101637.94;;;12.33;55.00